Time;durP1;ratioP1;P1;durP2;ratioP2;P2;SDS_P1;SDS_P2;PMS_P1;PMS_P2;Temp;Humidity;BMP_temperature;BMP_pressure;BME280_temperature;BME280_humidity;BME280_pressure;Samples;Min_cycle;Max_cycle;Signal;HPM_P1;HPM_P2
2023/08/10 00:01:28;;;;;;;4.95;1.42;;;22.30;96.70;;;;;;5065471;28;20040;-81
2023/08/10 00:03:56;;;;;;;8.00;1.40;;;22.30;96.70;;;;;;5069478;28;20052;-81
2023/08/10 00:06:24;;;;;;;4.88;1.40;;;22.40;96.70;;;;;;5065570;28;21161;-82
2023/08/10 00:08:52;;;;;;;2.80;1.17;;;22.30;96.70;;;;;;5062954;28;20512;-82
2023/08/10 00:11:20;;;;;;;4.13;1.35;;;22.20;96.70;;;;;;5068412;28;20403;-81
2023/08/10 00:13:49;;;;;;;2.78;0.90;;;22.20;96.70;;;;;;5067890;28;20036;-80
2023/08/10 00:16:18;;;;;;;1.65;0.98;;;22.10;96.70;;;;;;5069125;28;20486;-82
2023/08/10 00:18:46;;;;;;;1.65;0.80;;;22.10;96.70;;;;;;5043029;28;20097;-82
2023/08/10 00:21:15;;;;;;;3.80;1.10;;;22.10;96.70;;;;;;5068943;28;20055;-81
2023/08/10 00:23:43;;;;;;;1.80;0.93;;;22.10;96.70;;;;;;5069469;28;20051;-82
2023/08/10 00:26:11;;;;;;;1.60;0.90;;;22.10;96.70;;;;;;5069402;28;20043;-83
2023/08/10 00:28:39;;;;;;;1.90;1.00;;;22.10;96.70;;;;;;5068659;28;20048;-83
2023/08/10 00:31:07;;;;;;;4.75;1.00;;;21.90;96.70;;;;;;5068634;28;20041;-81
2023/08/10 00:33:38;;;;;;;5.15;1.20;;;21.90;96.70;;;;;;5069074;28;20087;-82
2023/08/10 00:36:07;;;;;;;3.17;1.38;;;21.90;96.70;;;;;;5043821;28;20514;-81
2023/08/10 00:38:37;;;;;;;3.85;1.70;;;21.90;96.70;;;;;;5061100;28;20041;-82
2023/08/10 00:41:06;;;;;;;2.55;1.30;;;22.00;96.70;;;;;;5048392;28;20097;-82
2023/08/10 00:43:34;;;;;;;3.13;1.13;;;22.10;96.70;;;;;;5066252;28;20086;-82
2023/08/10 00:46:03;;;;;;;2.17;1.10;;;22.10;96.70;;;;;;5066251;28;20051;-82
2023/08/10 00:48:31;;;;;;;3.05;1.20;;;22.00;96.70;;;;;;5066651;28;20041;-82
2023/08/10 00:51:01;;;;;;;2.75;1.00;;;21.90;96.70;;;;;;5064397;28;20074;-83
2023/08/10 00:53:30;;;;;;;3.38;1.17;;;21.90;96.70;;;;;;5051264;28;20052;-81
2023/08/10 00:55:59;;;;;;;2.58;0.90;;;21.90;96.70;;;;;;5067744;28;20080;-83
2023/08/10 00:58:30;;;;;;;3.13;0.75;;;21.90;96.70;;;;;;5068098;28;20049;-82
2023/08/10 01:00:58;;;;;;;2.78;1.27;;;21.90;96.70;;;;;;5067302;28;20056;-83
2023/08/10 01:03:26;;;;;;;2.55;0.80;;;21.90;96.70;;;;;;5064831;28;20445;-84
2023/08/10 01:06:12;;;;;;;2.30;1.00;;;21.70;96.70;;;;;;5051624;28;20568;-84
2023/08/10 01:08:46;;;;;;;1.75;0.80;;;21.80;96.70;;;;;;5067574;28;20071;-81
2023/08/10 01:11:21;;;;;;;2.00;1.08;;;21.70;96.70;;;;;;5062026;28;20045;-82
2023/08/10 01:13:59;;;;;;;1.52;1.00;;;21.70;96.70;;;;;;5067460;28;20567;-82
2023/08/10 01:16:28;;;;;;;3.72;1.25;;;21.60;96.70;;;;;;5058407;28;20064;-81
2023/08/10 01:18:58;;;;;;;2.15;0.90;;;21.70;96.70;;;;;;5065882;28;20143;-81
2023/08/10 01:21:40;;;;;;;3.55;1.00;;;21.70;96.70;;;;;;5068311;28;20040;-83
2023/08/10 01:24:16;;;;;;;2.75;1.20;;;21.60;96.70;;;;;;5065452;28;20053;-80
2023/08/10 01:26:47;;;;;;;2.40;0.80;;;21.50;96.70;;;;;;5063019;28;20045;-79
2023/08/10 01:29:15;;;;;;;2.60;1.17;;;21.50;96.70;;;;;;5046973;28;20136;-84
2023/08/10 01:31:43;;;;;;;3.22;1.02;;;21.50;96.70;;;;;;5050641;28;20498;-82
2023/08/10 01:34:11;;;;;;;1.40;1.10;;;21.40;96.70;;;;;;5067787;28;20064;-83
2023/08/10 01:36:39;;;;;;;3.25;1.40;;;21.50;96.70;;;;;;5059306;28;20041;-81
2023/08/10 01:39:07;;;;;;;3.58;1.05;;;21.50;96.70;;;;;;5066179;28;20060;-83
2023/08/10 01:41:35;;;;;;;3.90;1.35;;;21.50;96.70;;;;;;5050074;28;20033;-82
2023/08/10 01:44:05;;;;;;;3.78;1.55;;;21.40;96.70;;;;;;5040562;28;20458;-82
2023/08/10 01:46:35;;;;;;;1.52;0.90;;;21.50;96.70;;;;;;5065176;28;20494;-83
2023/08/10 01:49:06;;;;;;;2.40;0.95;;;21.60;96.70;;;;;;5066753;28;20166;-83
2023/08/10 01:51:37;;;;;;;3.53;1.20;;;21.50;96.70;;;;;;5061428;28;20052;-83
2023/08/10 01:54:09;;;;;;;2.40;1.10;;;21.40;96.70;;;;;;5056491;28;20144;-81
2023/08/10 01:56:37;;;;;;;2.08;0.98;;;21.40;96.70;;;;;;5060497;28;20068;-82
2023/08/10 01:59:07;;;;;;;2.53;0.98;;;21.50;96.70;;;;;;5066421;28;20064;-81
2023/08/10 02:01:35;;;;;;;2.88;1.13;;;21.60;96.70;;;;;;5065180;28;20048;-83
2023/08/10 02:04:03;;;;;;;1.63;0.85;;;21.50;96.70;;;;;;5065532;28;20114;-82
2023/08/10 02:06:37;;;;;;;3.63;0.82;;;21.50;96.70;;;;;;5048558;28;20048;-83
2023/08/10 02:09:05;;;;;;;2.30;0.80;;;21.40;96.70;;;;;;5061091;28;20049;-83
2023/08/10 02:11:33;;;;;;;2.65;1.10;;;21.40;96.70;;;;;;5066243;28;20047;-83
2023/08/10 02:14:01;;;;;;;3.50;1.40;;;21.30;96.70;;;;;;5064322;28;20040;-83
2023/08/10 02:16:30;;;;;;;2.72;0.85;;;21.30;96.70;;;;;;5052320;28;20055;-81
2023/08/10 02:18:58;;;;;;;2.75;1.48;;;21.30;96.70;;;;;;5063449;28;20482;-83
2023/08/10 02:21:26;;;;;;;4.13;1.20;;;21.30;96.70;;;;;;5065664;28;20055;-81
2023/08/10 02:23:54;;;;;;;2.13;0.93;;;21.20;96.70;;;;;;5065394;28;20442;-81
2023/08/10 02:26:22;;;;;;;2.60;1.15;;;21.20;96.70;;;;;;5050462;28;20498;-83
2023/08/10 02:28:50;;;;;;;1.98;1.00;;;21.10;96.70;;;;;;5065091;28;20052;-83
2023/08/10 02:31:18;;;;;;;3.35;1.13;;;21.00;96.70;;;;;;5065741;28;20040;-83
2023/08/10 02:33:47;;;;;;;1.67;0.90;;;20.90;96.70;;;;;;5064261;28;20080;-83
2023/08/10 02:36:16;;;;;;;3.03;0.80;;;20.90;96.70;;;;;;5060849;28;20068;-81
2023/08/10 02:38:44;;;;;;;2.35;1.00;;;20.90;96.70;;;;;;5049625;28;20066;-83
2023/08/10 02:41:12;;;;;;;3.90;1.00;;;21.00;96.70;;;;;;5057534;28;20072;-82
2023/08/10 02:43:40;;;;;;;3.75;1.20;;;20.90;96.70;;;;;;5058742;28;20151;-82
2023/08/10 02:46:08;;;;;;;2.03;1.00;;;20.90;96.70;;;;;;5048211;28;20109;-84
2023/08/10 02:48:36;;;;;;;2.78;1.20;;;20.80;96.70;;;;;;5058963;28;20078;-84
2023/08/10 02:51:05;;;;;;;3.08;1.08;;;20.80;96.70;;;;;;5065480;28;20051;-82
2023/08/10 02:53:34;;;;;;;2.45;0.70;;;20.70;96.70;;;;;;5065521;28;20490;-83
2023/08/10 02:56:01;;;;;;;2.05;1.23;;;20.90;96.70;;;;;;5049545;28;20044;-83
2023/08/10 02:58:29;;;;;;;4.82;1.20;;;20.80;96.70;;;;;;5065190;28;20105;-82
2023/08/10 03:00:57;;;;;;;1.38;0.95;;;20.80;96.70;;;;;;5065676;28;20044;-81
2023/08/10 03:03:26;;;;;;;2.95;1.23;;;20.80;96.70;;;;;;5065504;28;20053;-83
2023/08/10 03:05:54;;;;;;;4.00;1.38;;;20.80;96.70;;;;;;5060851;28;20037;-83
2023/08/10 03:08:24;;;;;;;4.75;1.10;;;20.80;96.70;;;;;;5063687;28;20644;-83
2023/08/10 03:10:52;;;;;;;3.72;1.40;;;20.70;96.70;;;;;;5048942;28;20053;-83
2023/08/10 03:13:21;;;;;;;2.40;1.05;;;20.70;96.70;;;;;;5065107;28;20078;-83
2023/08/10 03:15:51;;;;;;;1.45;0.82;;;20.70;96.70;;;;;;5065892;28;20506;-83
2023/08/10 03:18:19;;;;;;;4.85;1.40;;;20.70;96.70;;;;;;5048838;28;20049;-83
2023/08/10 03:20:47;;;;;;;3.40;1.00;;;20.60;96.70;;;;;;5065753;28;20094;-83
2023/08/10 03:23:15;;;;;;;2.33;1.00;;;20.60;96.70;;;;;;5065312;28;20056;-83
2023/08/10 03:25:45;;;;;;;2.30;0.90;;;20.40;96.70;;;;;;5048080;28;20072;-83
2023/08/10 03:28:13;;;;;;;4.97;1.10;;;20.50;96.70;;;;;;5057161;28;20585;-83
2023/08/10 03:30:41;;;;;;;4.43;1.50;;;20.40;96.70;;;;;;5065357;28;20043;-83
2023/08/10 03:33:11;;;;;;;3.08;1.17;;;20.30;96.70;;;;;;5065008;28;20048;-83
2023/08/10 03:35:42;;;;;;;3.42;0.93;;;20.20;96.70;;;;;;5065768;28;20139;-83
2023/08/10 03:38:10;;;;;;;3.00;1.08;;;20.30;96.70;;;;;;5074083;28;20055;-83
2023/08/10 03:40:38;;;;;;;3.95;1.25;;;20.30;96.70;;;;;;5067723;28;20052;-81
2023/08/10 03:43:07;;;;;;;3.65;1.17;;;20.20;96.70;;;;;;5068799;28;20098;-82
2023/08/10 03:45:36;;;;;;;2.10;1.02;;;20.10;96.70;;;;;;5064669;28;20052;-81
2023/08/10 03:48:06;;;;;;;3.15;1.20;;;20.20;96.70;;;;;;5066555;28;20131;-83
2023/08/10 03:50:35;;;;;;;5.05;1.20;;;20.10;96.70;;;;;;5053840;28;20518;-83
2023/08/10 03:53:05;;;;;;;2.67;1.42;;;20.10;96.70;;;;;;5067082;28;20547;-83
2023/08/10 03:55:34;;;;;;;3.25;0.80;;;20.00;96.70;;;;;;5061402;28;20045;-83
2023/08/10 03:58:03;;;;;;;2.10;1.13;;;20.10;96.70;;;;;;5069562;28;20045;-82
2023/08/10 04:00:34;;;;;;;2.97;1.00;;;20.20;96.70;;;;;;5050947;28;20086;-83
2023/08/10 04:03:04;;;;;;;1.30;0.95;;;20.20;96.70;;;;;;5069715;28;20094;-83
2023/08/10 04:05:33;;;;;;;2.22;1.33;;;20.20;96.70;;;;;;5067693;28;20051;-82
2023/08/10 04:08:03;;;;;;;4.10;1.17;;;20.20;96.70;;;;;;5067837;28;20044;-83
2023/08/10 04:10:32;;;;;;;2.17;0.90;;;20.20;96.70;;;;;;5069505;28;20047;-82
2023/08/10 04:13:02;;;;;;;2.17;1.10;;;20.20;96.70;;;;;;5068314;28;20044;-82
2023/08/10 04:15:31;;;;;;;1.88;0.88;;;20.20;96.70;;;;;;5067841;28;20502;-81
2023/08/10 04:18:02;;;;;;;2.20;0.98;;;20.20;96.70;;;;;;5078387;28;20050;-84
2023/08/10 04:20:31;;;;;;;2.38;0.98;;;20.20;96.70;;;;;;5051591;28;20048;-81
2023/08/10 04:23:00;;;;;;;2.70;1.42;;;20.10;96.70;;;;;;5064023;28;20063;-83
2023/08/10 04:25:29;;;;;;;2.35;1.00;;;20.10;96.70;;;;;;5064525;28;20145;-83
2023/08/10 04:27:58;;;;;;;3.15;1.05;;;20.10;96.70;;;;;;5047778;28;20584;-83
2023/08/10 04:30:29;;;;;;;3.50;1.35;;;20.10;96.70;;;;;;5076182;28;20049;-83
2023/08/10 04:32:58;;;;;;;4.18;1.35;;;20.00;96.70;;;;;;5068212;28;20056;-84
2023/08/10 04:35:29;;;;;;;3.47;1.38;;;19.90;96.70;;;;;;5047918;28;20044;-82
2023/08/10 04:37:58;;;;;;;2.20;1.05;;;19.90;96.70;;;;;;5065736;28;20052;-83
2023/08/10 04:40:27;;;;;;;4.80;1.63;;;19.90;96.70;;;;;;5060899;28;20044;-84
2023/08/10 04:42:58;;;;;;;3.83;1.48;;;19.90;96.70;;;;;;5067789;28;20102;-83
2023/08/10 04:45:27;;;;;;;2.40;1.08;;;19.90;96.70;;;;;;5068503;28;20048;-83
2023/08/10 04:47:56;;;;;;;2.92;1.65;;;19.90;96.70;;;;;;5068253;28;20051;-82
2023/08/10 04:50:25;;;;;;;2.50;1.38;;;19.90;96.70;;;;;;5069142;28;20040;-82
2023/08/10 04:52:57;;;;;;;4.90;1.50;;;19.90;96.70;;;;;;5067863;28;20041;-84
2023/08/10 04:55:26;;;;;;;3.58;1.30;;;19.90;96.70;;;;;;5083452;28;20048;-82
2023/08/10 04:57:54;;;;;;;5.45;1.38;;;19.90;96.70;;;;;;5052321;28;20052;-83
2023/08/10 05:00:24;;;;;;;4.82;1.35;;;19.90;96.70;;;;;;5067642;28;20114;-83
2023/08/10 05:02:53;;;;;;;6.35;1.40;;;19.90;96.70;;;;;;5069416;28;20041;-82
2023/08/10 05:05:22;;;;;;;3.88;1.35;;;20.00;96.70;;;;;;5067526;28;20044;-83
2023/08/10 05:07:51;;;;;;;6.75;2.30;;;20.00;96.70;;;;;;5059563;28;20060;-81
2023/08/10 05:10:21;;;;;;;6.68;1.73;;;19.90;96.70;;;;;;5068788;28;21066;-84
2023/08/10 05:12:50;;;;;;;2.42;1.38;;;20.00;96.70;;;;;;5068859;28;20047;-83
2023/08/10 05:15:19;;;;;;;5.07;1.63;;;20.10;96.70;;;;;;5067272;28;20804;-83
2023/08/10 05:17:48;;;;;;;3.47;1.15;;;20.10;96.70;;;;;;5066364;28;20131;-83
2023/08/10 05:20:17;;;;;;;3.80;1.40;;;20.10;96.70;;;;;;5063104;28;20044;-81
2023/08/10 05:22:46;;;;;;;4.13;1.40;;;20.20;96.70;;;;;;5060795;28;20106;-82
2023/08/10 05:25:15;;;;;;;4.32;1.45;;;20.20;96.70;;;;;;5063975;28;20064;-80
2023/08/10 05:27:48;;;;;;;3.65;1.45;;;20.20;96.70;;;;;;5063849;28;20489;-80
2023/08/10 05:30:17;;;;;;;22.00;2.88;;;20.30;96.70;;;;;;5065496;28;20036;-87
2023/08/10 05:32:46;;;;;;;2.08;1.33;;;20.40;96.70;;;;;;5068253;28;20055;-86
2023/08/10 05:35:16;;;;;;;4.25;1.63;;;20.40;96.70;;;;;;5067303;28;20071;-85
2023/08/10 05:37:44;;;;;;;2.40;1.20;;;20.30;96.70;;;;;;5067321;28;20094;-83
2023/08/10 05:40:13;;;;;;;3.33;1.15;;;20.40;96.70;;;;;;5068082;28;20041;-84
2023/08/10 05:42:43;;;;;;;2.97;1.20;;;20.40;96.70;;;;;;5069852;28;20040;-87
2023/08/10 05:45:19;;;;;;;2.90;1.40;;;20.50;96.70;;;;;;5066959;28;20040;-86
2023/08/10 05:47:50;;;;;;;2.30;1.30;;;20.40;96.70;;;;;;5051649;28;20071;-86
2023/08/10 05:50:19;;;;;;;3.75;1.50;;;20.40;96.70;;;;;;5067024;28;20373;-85
2023/08/10 05:52:49;;;;;;;2.97;1.33;;;20.40;96.70;;;;;;5067068;28;20043;-86
2023/08/10 05:55:18;;;;;;;3.97;1.23;;;20.50;96.70;;;;;;5082513;28;20476;-83
2023/08/10 05:57:46;;;;;;;4.13;1.25;;;20.50;96.70;;;;;;5068145;28;20125;-84
2023/08/10 06:00:18;;;;;;;2.72;1.52;;;20.50;96.70;;;;;;5050231;28;20071;-84
2023/08/10 06:02:48;;;;;;;4.57;1.60;;;20.60;96.70;;;;;;5059157;28;20036;-84
2023/08/10 06:05:17;;;;;;;2.97;1.40;;;20.70;96.70;;;;;;5050574;28;20083;-84
2023/08/10 06:07:47;;;;;;;4.88;1.52;;;20.80;96.70;;;;;;5067577;28;20099;-84
2023/08/10 06:10:17;;;;;;;4.68;1.55;;;20.90;96.70;;;;;;5058578;28;20131;-83
2023/08/10 06:12:46;;;;;;;3.00;1.40;;;21.00;96.70;;;;;;5058927;28;20489;-85
2023/08/10 06:15:16;;;;;;;4.35;1.40;;;21.00;96.70;;;;;;5066332;28;20074;-82
2023/08/10 06:17:46;;;;;;;3.00;1.15;;;21.10;96.70;;;;;;5068096;28;20607;-82
2023/08/10 06:20:16;;;;;;;3.15;1.50;;;21.20;96.70;;;;;;5066653;28;20046;-84
2023/08/10 06:22:45;;;;;;;4.60;1.50;;;21.10;96.70;;;;;;5050629;28;20136;-83
2023/08/10 06:25:15;;;;;;;4.38;1.45;;;21.10;96.70;;;;;;5048065;28;20037;-82
2023/08/10 06:27:44;;;;;;;4.90;1.48;;;21.20;96.70;;;;;;5049244;28;20065;-82
2023/08/10 06:30:16;;;;;;;3.83;1.80;;;21.20;96.70;;;;;;5064625;28;20040;-83
2023/08/10 06:32:46;;;;;;;3.13;1.58;;;21.30;96.70;;;;;;5049811;28;20147;-83
2023/08/10 06:35:15;;;;;;;5.97;1.70;;;21.30;96.70;;;;;;5064696;28;20071;-81
2023/08/10 06:37:44;;;;;;;4.13;1.45;;;21.30;96.70;;;;;;5056539;28;20049;-83
2023/08/10 06:40:15;;;;;;;3.70;1.70;;;21.40;96.70;;;;;;5049216;28;20045;-83
2023/08/10 06:42:44;;;;;;;3.88;1.88;;;21.40;96.70;;;;;;5079528;28;20124;-81
2023/08/10 06:45:25;;;;;;;5.68;1.58;;;21.50;96.70;;;;;;5066388;28;20048;-83
2023/08/10 06:47:55;;;;;;;3.20;1.65;;;21.60;96.70;;;;;;5067764;28;20075;-84
2023/08/10 06:50:23;;;;;;;3.63;2.03;;;21.70;96.70;;;;;;5066086;28;20051;-83
2023/08/10 06:52:53;;;;;;;6.35;1.90;;;21.80;96.70;;;;;;5067611;28;20068;-83
2023/08/10 06:55:22;;;;;;;4.78;1.63;;;21.80;96.70;;;;;;5065797;28;20112;-82
2023/08/10 06:57:50;;;;;;;5.70;1.55;;;21.80;96.70;;;;;;5065551;28;20053;-83
2023/08/10 07:00:22;;;;;;;5.47;1.73;;;21.90;96.70;;;;;;5058362;28;20055;-84
2023/08/10 07:02:55;;;;;;;2.53;1.50;;;22.00;96.70;;;;;;5065927;28;20052;-83
2023/08/10 07:05:31;;;;;;;4.63;1.92;;;22.00;96.70;;;;;;5062541;28;20135;-85
2023/08/10 07:08:00;;;;;;;3.83;1.52;;;22.00;96.70;;;;;;5056875;28;20540;-83
2023/08/10 07:10:29;;;;;;;4.68;1.58;;;22.10;96.70;;;;;;5067542;28;20040;-84
2023/08/10 07:12:58;;;;;;;5.20;1.50;;;22.20;96.70;;;;;;5071160;28;20494;-84
2023/08/10 07:15:27;;;;;;;4.65;1.70;;;22.30;96.70;;;;;;5067355;28;20040;-84
2023/08/10 07:17:57;;;;;;;3.78;1.48;;;22.30;96.70;;;;;;5062410;28;20052;-84
2023/08/10 07:20:28;;;;;;;3.45;1.63;;;22.40;96.70;;;;;;5069971;28;20102;-83
2023/08/10 07:22:57;;;;;;;7.97;1.80;;;22.50;96.70;;;;;;5086792;28;20773;-81
2023/08/10 07:25:27;;;;;;;4.80;1.77;;;22.50;96.70;;;;;;5067074;28;20050;-83
2023/08/10 07:27:56;;;;;;;4.03;1.38;;;22.60;96.70;;;;;;5069940;28;20048;-83
2023/08/10 07:30:25;;;;;;;4.88;1.90;;;22.60;96.70;;;;;;5069287;28;20119;-82
2023/08/10 07:32:54;;;;;;;3.80;1.85;;;22.70;96.70;;;;;;5070467;28;20063;-82
2023/08/10 07:35:26;;;;;;;2.92;1.73;;;22.80;96.70;;;;;;5059420;28;20135;-83
2023/08/10 07:37:55;;;;;;;3.63;1.58;;;22.90;96.70;;;;;;5047682;28;20076;-84
2023/08/10 07:40:25;;;;;;;5.93;1.77;;;22.90;96.70;;;;;;5069265;28;20401;-83
2023/08/10 07:42:53;;;;;;;3.35;1.58;;;23.00;96.70;;;;;;5069109;28;20123;-83
2023/08/10 07:45:22;;;;;;;4.50;1.50;;;23.10;96.70;;;;;;5070002;28;20059;-83
2023/08/10 07:47:50;;;;;;;3.00;1.80;;;23.20;96.70;;;;;;5069163;28;20041;-82
2023/08/10 07:50:18;;;;;;;5.32;1.80;;;23.20;96.70;;;;;;5052742;28;20220;-83
2023/08/10 07:52:47;;;;;;;6.18;1.40;;;23.20;96.70;;;;;;5068880;28;20039;-82
2023/08/10 07:55:15;;;;;;;6.45;1.40;;;23.10;96.70;;;;;;5069128;28;20045;-81
2023/08/10 07:57:43;;;;;;;3.13;1.40;;;23.20;96.70;;;;;;5070728;28;20048;-85
2023/08/10 08:00:15;;;;;;;3.88;1.50;;;23.30;96.70;;;;;;5052448;28;20079;-85
2023/08/10 08:02:44;;;;;;;4.70;1.50;;;23.40;96.70;;;;;;5060610;28;20114;-85
2023/08/10 08:05:12;;;;;;;4.95;1.80;;;23.50;96.70;;;;;;5069108;28;20028;-85
2023/08/10 08:07:40;;;;;;;3.75;1.55;;;23.60;96.70;;;;;;5069324;28;20053;-85
2023/08/10 08:10:10;;;;;;;5.18;1.42;;;23.60;96.70;;;;;;5069184;28;20052;-81
2023/08/10 08:12:38;;;;;;;5.22;1.90;;;23.70;96.70;;;;;;5070812;28;20051;-83
2023/08/10 08:15:07;;;;;;;7.85;1.55;;;23.80;96.70;;;;;;5051724;28;20053;-81
2023/08/10 08:18:09;;;;;;;3.95;1.92;;;23.80;96.70;;;;;;5050131;28;20461;-83
2023/08/10 08:20:36;;;;;;;5.30;1.48;;;23.90;96.70;;;;;;5068316;28;20048;-83
2023/08/10 08:23:04;;;;;;;3.35;1.40;;;24.00;96.70;;;;;;5067012;28;20072;-83
2023/08/10 08:25:34;;;;;;;2.35;1.30;;;24.10;96.70;;;;;;5068275;28;20044;-82
2023/08/10 08:28:05;;;;;;;4.13;1.35;;;24.10;96.70;;;;;;5069885;28;20486;-83
2023/08/10 08:30:33;;;;;;;5.47;1.30;;;24.20;96.70;;;;;;5068458;28;20053;-84
2023/08/10 08:33:01;;;;;;;2.47;1.45;;;24.30;96.70;;;;;;5068826;28;20491;-84
2023/08/10 08:35:29;;;;;;;3.88;1.60;;;24.30;96.70;;;;;;5069769;28;20082;-86
2023/08/10 08:37:57;;;;;;;5.53;1.60;;;24.40;96.70;;;;;;5059074;28;20296;-86
2023/08/10 08:40:25;;;;;;;2.78;1.50;;;24.50;96.70;;;;;;5075118;28;20045;-84
2023/08/10 08:42:55;;;;;;;5.53;1.70;;;24.50;96.70;;;;;;5064070;28;20108;-83
2023/08/10 08:45:23;;;;;;;2.63;1.40;;;24.50;96.70;;;;;;5068358;28;20090;-82
2023/08/10 08:47:52;;;;;;;3.60;1.25;;;24.60;96.70;;;;;;5066962;28;20049;-83
2023/08/10 08:50:20;;;;;;;7.43;1.75;;;24.70;96.70;;;;;;5068151;28;20600;-83
2023/08/10 08:52:50;;;;;;;3.22;1.95;;;24.90;96.70;;;;;;5068532;28;20037;-83
2023/08/10 08:55:18;;;;;;;6.25;1.90;;;25.00;96.70;;;;;;5067532;28;20044;-83
2023/08/10 08:57:47;;;;;;;3.58;1.50;;;25.00;96.70;;;;;;5065398;28;20059;-83
2023/08/10 09:00:17;;;;;;;4.63;1.70;;;25.00;96.70;;;;;;5067649;28;20104;-83
2023/08/10 09:02:45;;;;;;;5.32;1.67;;;25.10;96.70;;;;;;5066781;28;20177;-83
2023/08/10 09:05:14;;;;;;;4.07;1.27;;;25.30;96.70;;;;;;5060716;28;20130;-83
2023/08/10 09:07:42;;;;;;;3.28;1.80;;;25.50;96.70;;;;;;5047154;28;20052;-83
2023/08/10 09:10:10;;;;;;;2.33;1.40;;;25.50;96.70;;;;;;5064156;28;20494;-83
2023/08/10 09:12:39;;;;;;;3.72;1.67;;;25.50;96.70;;;;;;5067611;28;20044;-83
2023/08/10 09:15:09;;;;;;;3.30;1.17;;;25.60;96.70;;;;;;5067824;28;20040;-81
2023/08/10 09:17:44;;;;;;;2.85;1.40;;;25.60;96.70;;;;;;5062644;28;20066;-83
2023/08/10 09:20:18;;;;;;;4.22;1.40;;;25.50;96.70;;;;;;5068341;28;20048;-83
2023/08/10 09:22:48;;;;;;;5.95;1.00;;;25.60;96.70;;;;;;5050805;28;20100;-83
2023/08/10 09:25:16;;;;;;;3.30;1.33;;;25.80;96.70;;;;;;5059763;28;20102;-83
2023/08/10 09:27:45;;;;;;;2.95;1.60;;;25.90;96.70;;;;;;5068001;28;20556;-84
2023/08/10 09:30:14;;;;;;;3.40;1.63;;;25.90;96.70;;;;;;5050382;28;20050;-83
2023/08/10 09:32:44;;;;;;;7.57;1.75;;;26.00;96.70;;;;;;5067334;28;20057;-83
2023/08/10 09:35:17;;;;;;;1.88;1.40;;;26.00;96.70;;;;;;5058474;28;20131;-81
2023/08/10 09:37:46;;;;;;;2.63;1.10;;;26.00;96.70;;;;;;5060746;28;20040;-82
2023/08/10 09:40:16;;;;;;;3.03;1.58;;;26.00;96.70;;;;;;5067465;28;20048;-83
2023/08/10 09:42:44;;;;;;;3.90;1.48;;;26.10;96.70;;;;;;5067400;28;20051;-83
2023/08/10 09:45:15;;;;;;;4.15;1.50;;;26.10;96.70;;;;;;5066190;28;20043;-83
2023/08/10 09:47:45;;;;;;;2.83;1.88;;;26.20;96.70;;;;;;5065343;28;20498;-83
2023/08/10 09:50:14;;;;;;;2.60;1.25;;;26.20;96.70;;;;;;5049413;28;20474;-84
2023/08/10 09:52:43;;;;;;;4.45;1.63;;;26.20;96.70;;;;;;5065822;28;20044;-83
2023/08/10 09:55:12;;;;;;;3.95;1.65;;;26.40;96.70;;;;;;5066553;28;20068;-83
2023/08/10 09:57:47;;;;;;;5.82;2.03;;;26.40;96.70;;;;;;5065432;28;20049;-82
2023/08/10 10:00:19;;;;;;;4.38;1.48;;;26.50;96.70;;;;;;5065568;28;20552;-82
2023/08/10 10:02:48;;;;;;;3.45;1.70;;;26.80;96.70;;;;;;5066178;28;20040;-80
2023/08/10 10:05:19;;;;;;;3.05;1.13;;;26.90;96.70;;;;;;5066150;28;20068;-83
2023/08/10 10:07:50;;;;;;;2.83;1.10;;;27.00;96.70;;;;;;5066140;28;20123;-82
2023/08/10 10:10:19;;;;;;;6.82;1.70;;;27.10;96.70;;;;;;5067806;28;20039;-83
2023/08/10 10:12:49;;;;;;;6.80;1.73;;;27.10;96.70;;;;;;5067103;28;20040;-82
2023/08/10 10:15:20;;;;;;;2.80;1.40;;;27.20;96.70;;;;;;5067081;28;20049;-83
2023/08/10 10:17:52;;;;;;;4.22;1.63;;;27.20;96.70;;;;;;5065055;28;20055;-83
2023/08/10 10:20:21;;;;;;;3.55;1.60;;;27.20;96.70;;;;;;5065056;28;20234;-82
2023/08/10 10:22:50;;;;;;;2.50;1.30;;;27.20;96.70;;;;;;5066711;28;20111;-82
2023/08/10 10:25:20;;;;;;;5.60;1.83;;;27.30;96.70;;;;;;5065255;28;20132;-82
2023/08/10 10:27:50;;;;;;;3.13;1.50;;;27.50;96.70;;;;;;5064982;28;20041;-84
2023/08/10 10:30:22;;;;;;;3.38;1.40;;;27.60;96.70;;;;;;5065227;28;20048;-83
2023/08/10 10:32:52;;;;;;;2.75;1.08;;;27.70;96.70;;;;;;5063867;28;20059;-82
2023/08/10 10:35:31;;;;;;;4.80;1.40;;;27.90;96.70;;;;;;5064917;28;20071;-82
2023/08/10 10:38:03;;;;;;;4.18;1.38;;;27.80;96.70;;;;;;5065101;28;20044;-82
2023/08/10 10:40:32;;;;;;;2.13;1.20;;;27.90;96.70;;;;;;5064103;28;20048;-82
2023/08/10 10:43:08;;;;;;;3.67;1.38;;;28.20;96.70;;;;;;5065295;28;20110;-82
2023/08/10 10:45:38;;;;;;;2.38;1.40;;;28.30;96.70;;;;;;5064677;28;20044;-80
2023/08/10 10:48:10;;;;;;;3.42;1.50;;;28.40;96.70;;;;;;5063180;28;20498;-82
2023/08/10 10:50:38;;;;;;;3.17;1.35;;;28.50;96.70;;;;;;5055262;28;20051;-82
2023/08/10 10:53:13;;;;;;;3.10;1.70;;;28.50;96.70;;;;;;5062284;28;20063;-81
2023/08/10 10:55:43;;;;;;;1.65;1.25;;;28.50;96.70;;;;;;5059997;28;20044;-82
2023/08/10 10:58:12;;;;;;;4.00;1.60;;;28.70;96.70;;;;;;5063560;28;20082;-81
2023/08/10 11:00:41;;;;;;;3.35;1.52;;;28.90;96.70;;;;;;5046668;28;20052;-82
2023/08/10 11:03:15;;;;;;;4.43;1.42;;;29.00;96.70;;;;;;5065530;28;20136;-82
2023/08/10 11:05:43;;;;;;;5.05;1.33;;;29.20;96.70;;;;;;5047787;28;20041;-82
2023/08/10 11:08:14;;;;;;;3.13;1.50;;;29.30;96.70;;;;;;5065659;28;20048;-82
2023/08/10 11:10:44;;;;;;;3.72;1.80;;;29.50;96.70;;;;;;5046065;28;20053;-83
2023/08/10 11:13:13;;;;;;;4.95;1.40;;;29.70;96.70;;;;;;5063982;28;20110;-83
2023/08/10 11:15:46;;;;;;;3.25;1.77;;;29.80;96.70;;;;;;5065888;28;20978;-82
2023/08/10 11:18:16;;;;;;;6.53;1.45;;;29.70;96.70;;;;;;5064056;28;20052;-82
2023/08/10 11:20:46;;;;;;;1.73;1.10;;;29.80;96.70;;;;;;5064521;28;20055;-83
2023/08/10 11:23:14;;;;;;;2.22;1.27;;;29.90;96.70;;;;;;5064066;28;20052;-82
2023/08/10 11:25:48;;;;;;;3.13;1.38;;;30.00;96.70;;;;;;5064192;28;20130;-82
2023/08/10 11:28:18;;;;;;;2.50;1.52;;;30.00;96.70;;;;;;5064928;28;20099;-84
2023/08/10 11:30:47;;;;;;;4.28;1.50;;;30.00;96.70;;;;;;5065021;28;20044;-83
2023/08/10 11:33:17;;;;;;;3.30;1.33;;;30.20;96.70;;;;;;5064504;28;20060;-83
2023/08/10 11:35:52;;;;;;;1.90;1.25;;;30.50;96.70;;;;;;5079778;28;20059;-82
2023/08/10 11:38:21;;;;;;;4.65;1.27;;;30.70;96.70;;;;;;5064522;28;20628;-82
2023/08/10 11:40:50;;;;;;;3.70;1.58;;;30.70;96.70;;;;;;5063371;28;20044;-82
2023/08/10 11:43:21;;;;;;;2.53;1.33;;;30.70;96.70;;;;;;5063381;28;20048;-81
2023/08/10 11:45:49;;;;;;;2.80;1.10;;;30.80;96.70;;;;;;5064536;28;20379;-82
2023/08/10 11:48:19;;;;;;;2.78;1.27;;;31.00;96.70;;;;;;5063671;28;20471;-82
2023/08/10 11:50:57;;;;;;;2.72;1.27;;;30.90;96.70;;;;;;5058227;28;20045;-82
2023/08/10 11:53:36;;;;;;;4.38;1.15;;;31.00;96.70;;;;;;5063755;28;20049;-82
2023/08/10 11:56:10;;;;;;;2.75;1.33;;;31.10;96.70;;;;;;5071547;28;20040;-82
2023/08/10 11:58:39;;;;;;;2.65;1.13;;;31.30;96.70;;;;;;5057824;28;20460;-81
2023/08/10 12:01:13;;;;;;;1.92;1.20;;;31.50;96.70;;;;;;5067247;28;20044;-82
2023/08/10 12:03:53;;;;;;;1.70;1.20;;;31.80;96.70;;;;;;5046744;28;20053;-82
2023/08/10 12:06:25;;;;;;;2.97;1.48;;;31.90;96.70;;;;;;5065264;28;20049;-81
2023/08/10 12:08:53;;;;;;;2.25;1.40;;;32.10;96.70;;;;;;5058665;28;20048;-82
2023/08/10 12:11:22;;;;;;;2.85;1.02;;;32.20;96.70;;;;;;5067742;28;20114;-82
2023/08/10 12:13:54;;;;;;;2.15;1.27;;;32.20;96.70;;;;;;5067146;28;20114;-81
2023/08/10 12:16:22;;;;;;;2.78;1.50;;;32.20;96.70;;;;;;5066596;28;20053;-82
2023/08/10 12:18:52;;;;;;;3.03;1.48;;;32.30;96.70;;;;;;5066186;28;20044;-83
2023/08/10 12:21:21;;;;;;;2.40;1.40;;;32.40;96.70;;;;;;5059169;28;20044;-82
2023/08/10 12:23:49;;;;;;;2.75;1.50;;;32.50;96.70;;;;;;5066253;28;20127;-81
2023/08/10 12:26:17;;;;;;;3.88;1.10;;;32.60;96.70;;;;;;5065993;28;20070;-82
2023/08/10 12:28:45;;;;;;;3.05;1.70;;;32.40;96.70;;;;;;5067223;28;20486;-82
2023/08/10 12:31:14;;;;;;;4.32;1.60;;;32.30;96.70;;;;;;5066944;28;20054;-82
2023/08/10 12:33:42;;;;;;;2.78;1.48;;;32.20;96.70;;;;;;5067150;28;20516;-82
2023/08/10 12:36:12;;;;;;;3.45;1.65;;;32.30;96.70;;;;;;5067010;28;21158;-82
2023/08/10 12:38:40;;;;;;;3.55;1.50;;;32.30;96.70;;;;;;5067039;28;20059;-82
2023/08/10 12:41:10;;;;;;;1.98;1.20;;;32.30;96.70;;;;;;5048958;28;20075;-80
2023/08/10 12:43:38;;;;;;;3.28;1.58;;;32.10;96.70;;;;;;5066908;28;20044;-82
2023/08/10 12:46:07;;;;;;;2.25;1.00;;;32.20;96.70;;;;;;5066126;28;20041;-82
2023/08/10 12:48:35;;;;;;;4.00;1.23;;;32.40;96.70;;;;;;5064991;28;20056;-79
2023/08/10 12:51:07;;;;;;;2.10;1.60;;;32.30;96.70;;;;;;5065054;28;20040;-83
2023/08/10 12:53:37;;;;;;;4.03;1.63;;;32.40;96.70;;;;;;5065098;28;20494;-80
2023/08/10 12:56:05;;;;;;;3.53;1.33;;;32.40;96.70;;;;;;5065182;28;20076;-81
2023/08/10 12:58:37;;;;;;;3.67;1.50;;;32.50;96.70;;;;;;5046145;28;20388;-81
2023/08/10 13:01:05;;;;;;;3.58;1.40;;;32.50;96.70;;;;;;5065110;28;20049;-82